Flight Track Log - Related Links

Times and Time Zones

All times are in EDT time to prevent confusion due to time zone crossing. See the TAM3719 flight status page for this flight to view local times or setup timezone preferences in your user account.

Time Position Orientation Groundspeed Altitude Reporting Facility
EDT Latitude Longitude Course Direction KTS MPH feet Rate Location/Type
Mon 04:52:52 AM -15.8780 -47.8970 270° West 10 12 4,300  Level FlightAware ADS-B
Mon 04:53:12 AM -15.8780 -47.8830 90° East 165 190 5,100 1,067 Climbing FlightAware ADS-B
Mon 04:53:37 AM -15.8770 -47.8630 87° East 165 190 5,100 1,600 Level FlightAware ADS-B
Mon 04:55:27 AM -16.0040 -47.8690 183° South 173 199 8,700 1,938 Climbing FlightAware ADS-B
Mon 04:55:47 AM -16.0240 -47.8710 185° South 259 298 9,300 1,091 Climbing FlightAware ADS-B
Mon 04:56:22 AM -16.0660 -47.8750 185° South 263 303 9,700 2,400 Climbing FlightAware ADS-B
Mon 04:56:32 AM -16.0730 -47.8940 249° West 266 306 11,100 2,400 Climbing FlightAware ADS-B
Mon 04:57:22 AM -16.1280 -47.9230 207° Southwest 274 315 12,100 2,025 Climbing FlightAware ADS-B
Mon 04:57:52 AM -16.1780 -47.9190 176° South 300 345 13,800 2,031 Climbing FlightAware ADS-B
Mon 04:58:27 AM -16.2280 -47.9210 182° South 333 383 14,300 1,257 Climbing FlightAware ADS-B
Mon 05:01:00 AM -16.4634 -47.8824 171° South  Level Estimated
Mon 05:01:22 AM -16.5260 -47.9260 171° South 379 436 18,200  Level FlightAware ADS-B
Mon 05:02:17 AM -16.6210 -47.9280 181° South 378 435 19,800 1,011 Climbing FlightAware ADS-B
Mon 05:02:57 AM -16.6810 -47.9300 182° South 378 435 19,800 1,200 Level FlightAware ADS-B
Mon 05:03:37 AM -16.7660 -47.9310 181° South 399 459 21,400 1,200 Climbing FlightAware ADS-B
Mon 05:04:17 AM -16.8290 -47.9320 181° South 399 459 21,400  Level FlightAware ADS-B
Mon 05:05:07 AM -16.9080 -47.9340 181° South 399 459 21,400  Level FlightAware ADS-B
Mon 05:05:47 AM -16.9700 -47.9350 181° South 399 459 21,400  Level FlightAware ADS-B
Mon 05:06:27 AM -17.0330 -47.9360 181° South 399 459 21,400  Level FlightAware ADS-B
Mon 05:07:07 AM -17.0960 -47.9370 181° South 399 459 21,400 1,208 Level FlightAware ADS-B
Mon 05:09:00 AM -17.2692 -47.9043 170° South  Level Estimated
Mon 05:10:00 AM -17.3612 -47.8870 170° South  Level Estimated
Mon 05:11:00 AM -17.4670 -47.8670 170° South  Level Estimated
Mon 05:12:00 AM -17.5729 -47.8469 170° South  Level Estimated
Mon 05:13:00 AM -17.6787 -47.8269 170° South  Level Estimated
Mon 05:14:00 AM -17.7845 -47.8068 170° South  Level Estimated
Mon 05:15:00 AM -17.8904 -47.7867 170° South  Level Estimated
Mon 05:16:00 AM -17.9962 -47.7666 170° South  Level Estimated
Mon 05:17:00 AM -18.1020 -47.7464 170° South  Level Estimated
Mon 05:18:00 AM -18.2078 -47.7262 170° South  Level Estimated
Mon 05:18:22 AM -18.5500 -47.6810 170° South 442 509 35,800  Level FlightAware ADS-B
Mon 05:19:07 AM -18.6670 -47.6640 172° South 441 507 36,000 141 Climbing FlightAware ADS-B
Mon 05:19:47 AM -18.7430 -47.6530 172° South 439 505 36,000  Level FlightAware ADS-B
Mon 05:20:27 AM -18.8120 -47.6430 172° South 439 505 36,000  Level FlightAware ADS-B
Mon 05:21:12 AM -18.9280 -47.6270 173° South 445 512 36,000  Level FlightAware ADS-B
Mon 05:21:57 AM -19.0170 -47.6140 172° South 446 513 36,000  Level FlightAware ADS-B
Mon 05:22:37 AM -19.1020 -47.6020 172° South 448 516 36,000  Level FlightAware ADS-B
Mon 05:23:17 AM -19.1840 -47.5900 172° South 450 518 36,000  Level FlightAware ADS-B
Mon 05:24:12 AM -19.2980 -47.5740 172° South 451 519 36,000  Level FlightAware ADS-B
Mon 05:24:57 AM -19.3920 -47.5600 172° South 450 518 36,000  Level FlightAware ADS-B
Mon 05:25:37 AM -19.4740 -47.5480 172° South 449 517 36,000  Level FlightAware ADS-B
Mon 05:26:22 AM -19.5630 -47.5350 172° South 449 517 36,000  Level FlightAware ADS-B
Mon 05:27:02 AM -19.6500 -47.5220 172° South 449 517 36,000  Level FlightAware ADS-B
Mon 05:27:47 AM -19.7420 -47.5150 176° South 445 512 36,000  Level FlightAware ADS-B
Mon 05:28:27 AM -19.8220 -47.5290 189° South 436 502 36,000  Level FlightAware ADS-B
Mon 05:29:12 AM -19.9100 -47.5550 196° South 435 501 36,000  Level FlightAware ADS-B
Mon 05:29:52 AM -19.9880 -47.5790 196° South 433 498 36,000  Level FlightAware ADS-B
Mon 05:30:32 AM -20.0640 -47.6020 196° South 431 496 36,000  Level FlightAware ADS-B
Mon 05:31:17 AM -20.1510 -47.6280 196° South 433 498 36,000  Level FlightAware ADS-B
Mon 05:31:57 AM -20.2270 -47.6510 196° South 433 498 36,000  Level FlightAware ADS-B
Mon 05:32:37 AM -20.3070 -47.6760 196° South 433 498 36,000  Level FlightAware ADS-B
Mon 05:33:22 AM -20.3860 -47.7000 196° South 432 497 36,000  Level FlightAware ADS-B
Mon 05:34:02 AM -20.4690 -47.7250 196° South 430 495 36,000  Level FlightAware ADS-B
Mon 05:34:42 AM -20.5460 -47.7490 196° South 429 494 36,000  Level FlightAware ADS-B
Mon 05:35:27 AM -20.6330 -47.7750 196° South 428 493 36,000  Level FlightAware ADS-B
Mon 05:36:07 AM -20.7050 -47.7970 196° South 429 494 36,000  Level FlightAware ADS-B
Mon 05:36:52 AM -20.7960 -47.8220 194° South 437 503 36,000  Level FlightAware ADS-B
Mon 05:37:32 AM -20.8640 -47.8230 181° South 450 518 36,000  Level FlightAware ADS-B
Mon 05:38:17 AM -20.9730 -47.8150 176° South 448 516 36,000  Level FlightAware ADS-B
Mon 05:38:57 AM -21.0520 -47.8090 176° South 447 514 36,000  Level FlightAware ADS-B
Mon 05:39:37 AM -21.1350 -47.8030 176° South 445 512 36,000  Level FlightAware ADS-B
Mon 05:40:22 AM -21.2280 -47.7960 176° South 443 510 36,000  Level FlightAware ADS-B
Mon 05:41:02 AM -21.3110 -47.7890 176° South 442 509 36,000  Level FlightAware ADS-B
Mon 05:41:47 AM -21.4050 -47.7820 176° South 441 507 36,000  Level FlightAware ADS-B
Mon 05:42:27 AM -21.4850 -47.7750 175° South 441 507 36,000  Level FlightAware ADS-B
Mon 05:43:07 AM -21.5680 -47.7690 176° South 441 507 36,000  Level FlightAware ADS-B
Mon 05:43:52 AM -21.6580 -47.7620 176° South 443 510 36,000  Level FlightAware ADS-B
Mon 05:44:32 AM -21.7390 -47.7550 175° South 444 511 36,000  Level FlightAware ADS-B
Mon 05:45:17 AM -21.8350 -47.7480 176° South 445 512 36,000  Level FlightAware ADS-B
Mon 05:45:57 AM -21.9170 -47.7410 175° South 444 511 36,000 -1,125 Level FlightAware ADS-B
Mon 05:46:37 AM -21.9990 -47.7350 176° South 451 519 34,500 -2,259 Descending FlightAware ADS-B
Mon 05:47:22 AM -22.0910 -47.7270 175° South 443 510 32,800 -2,188 Descending FlightAware ADS-B
Mon 05:48:02 AM -22.1720 -47.7210 176° South 437 503 31,400 -2,100 Descending FlightAware ADS-B
Mon 05:48:42 AM -22.2520 -47.7150 176° South 430 495 30,000 -2,118 Descending FlightAware ADS-B
Mon 05:49:27 AM -22.3420 -47.7070 175° South 423 487 28,400 -2,047 Descending FlightAware ADS-B
Mon 05:50:07 AM -22.4200 -47.7010 176° South 417 480 27,100 -2,188 Descending FlightAware ADS-B
Mon 05:50:52 AM -22.5030 -47.6800 167° South 429 494 25,300 -2,259 Descending FlightAware ADS-B
Mon 05:51:32 AM -22.5780 -47.6500 160° South 421 484 23,900 -1,950 Descending FlightAware ADS-B
Mon 05:52:12 AM -22.6500 -47.6220 160° South 412 474 22,700 -1,875 Descending FlightAware ADS-B
Mon 05:52:52 AM -22.7210 -47.5950 161° South 406 467 21,400 -1,624 Descending FlightAware ADS-B
Mon 05:53:37 AM -22.7970 -47.5630 159° South 381 438 20,400 -1,267 Descending FlightAware ADS-B
Mon 05:54:22 AM -22.8580 -47.5110 142° Southeast 367 422 19,500 -1,271 Descending FlightAware ADS-B
Mon 05:55:02 AM -22.9090 -47.4630 139° Southeast 346 398 18,600 -1,341 Descending FlightAware ADS-B
Mon 05:55:47 AM -22.9630 -47.4130 140° Southeast 339 390 17,600 -1,553 Descending FlightAware ADS-B
Mon 05:56:27 AM -23.0120 -47.3680 140° Southeast 336 387 16,400 -1,500 Descending FlightAware ADS-B
Mon 05:57:07 AM -23.0580 -47.3250 139° Southeast 321 369 15,600 -1,271 Descending FlightAware ADS-B
Mon 05:57:52 AM -23.1100 -47.2770 140° Southeast 318 366 14,600 -1,341 Descending FlightAware ADS-B
Mon 05:58:32 AM -23.1520 -47.2370 139° Southeast 309 356 13,700 -1,482 Descending FlightAware ADS-B
Mon 05:59:17 AM -23.2000 -47.1920 139° Southeast 308 354 12,500 -1,624 Descending FlightAware ADS-B
Mon 05:59:57 AM -23.2420 -47.1530 140° Southeast 309 356 11,400 -1,500 Descending FlightAware ADS-B
Mon 06:00:37 AM -23.2870 -47.1110 139° Southeast 304 350 10,500 -918 Descending FlightAware ADS-B
Mon 06:01:22 AM -23.3320 -47.0690 139° Southeast 281 323 10,100 -514 Descending FlightAware ADS-B
Mon 06:01:47 AM -23.3570 -47.0460 140° Southeast 275 316 9,900 -450 Descending FlightAware ADS-B
Mon 06:02:02 AM -23.3700 -47.0330 137° Southeast 275 316 9,800 -533 Descending FlightAware ADS-B
Mon 06:02:32 AM -23.3990 -47.0060 139° Southeast 276 318 9,500 -545 Descending FlightAware ADS-B
Mon 06:02:57 AM -23.4240 -46.9830 140° Southeast 276 318 9,300 -436 Descending FlightAware ADS-B
Mon 06:03:27 AM -23.4500 -46.9580 139° Southeast 275 316 9,100 -436 Descending FlightAware ADS-B
Mon 06:03:52 AM -23.4750 -46.9350 140° Southeast 275 316 8,900 -545 Descending FlightAware ADS-B
Mon 06:04:22 AM -23.5060 -46.9060 139° Southeast 274 315 8,600 -500 Descending FlightAware ADS-B
Mon 06:04:52 AM -23.5340 -46.8780 137° Southeast 274 315 8,400 -436 Descending FlightAware ADS-B
Mon 06:05:17 AM -23.5550 -46.8580 139° Southeast 273 314 8,200 -533 Descending FlightAware ADS-B
Mon 06:05:37 AM -23.5750 -46.8390 139° Southeast 273 314 8,000 -450 Descending FlightAware ADS-B
Mon 06:05:57 AM -23.5880 -46.8260 137° Southeast 272 313 7,900 -462 Descending FlightAware ADS-B
Mon 06:06:42 AM -23.6310 -46.7850 139° Southeast 272 313 7,500 -369 Descending FlightAware ADS-B
Mon 06:07:02 AM -23.6480 -46.7670 136° Southeast 269 310 7,500 -218 Level FlightAware ADS-B
Mon 06:07:37 AM -23.6910 -46.7250 138° Southeast 268 308 7,300 -369 Descending FlightAware ADS-B
Mon 06:08:07 AM -23.7150 -46.7000 136° Southeast 258 297 7,100 -533 Descending FlightAware ADS-B
Mon 06:08:22 AM -23.7280 -46.6880 140° Southeast 253 291 6,900 -450 Descending FlightAware ADS-B
Mon 06:08:47 AM -23.7490 -46.6680 139° Southeast 239 275 6,800 -462 Descending FlightAware ADS-B
Mon 06:09:27 AM -23.7750 -46.6350 131° Southeast 234 269 6,400 -600 Descending FlightAware ADS-B
Mon 06:09:37 AM -23.7760 -46.6200 94° East 222 255 6,300 -800 Descending FlightAware ADS-B
Mon 06:10:12 AM -23.7560 -46.5970 46° Northeast 191 220 5,800 -900 Descending FlightAware ADS-B
Mon 06:10:17 AM -23.7500 -46.5960 North 193 222 5,700 -1,714 Descending FlightAware ADS-B
Mon 06:11:22 AM -23.6940 -46.6110 346° North 180 207 3,800 -1,453 Descending FlightAware ADS-B
Mon 06:11:52 AM -23.6770 -46.6220 329° Northwest 146 168 3,400 -738 Descending FlightAware ADS-B
Mon 06:12:27 AM -23.6600 -46.6330 329° Northwest 139 160 3,000 -686 Descending FlightAware ADS-B
Mon 06:13:02 AM -23.6430 -46.6450 327° Northwest 141 162 2,600 -686 Descending FlightAware ADS-B

Login

Don't have an account? Register now (free) for customized features, flight alerts, and more!